Time;durP1;ratioP1;P1;durP2;ratioP2;P2;SDS_P1;SDS_P2;PMS_P1;PMS_P2;Temp;Humidity;BMP_temperature;BMP_pressure;BME280_temperature;BME280_humidity;BME280_pressure;Samples;Min_cycle;Max_cycle;Signal;HPM_P1;HPM_P2
2021/01/17 00:00:50;;;;;;;0.00;0.00;;;-0.30;99.90;;;;;;4931894;29;20054;-92
2021/01/17 00:03:16;;;;;;;0.00;0.00;;;-0.30;99.90;;;;;;4965628;29;20051;-93
2021/01/17 00:05:43;;;;;;;0.00;0.00;;;-0.30;99.90;;;;;;4935673;29;20070;-93
2021/01/17 00:08:10;;;;;;;0.00;0.00;;;-0.30;99.90;;;;;;4938650;29;20031;-93
2021/01/17 00:10:37;;;;;;;0.00;0.00;;;-0.30;99.90;;;;;;4951311;29;20047;-92
2021/01/17 00:13:04;;;;;;;0.00;0.00;;;-0.20;99.90;;;;;;4951599;29;20078;-92
2021/01/17 00:15:30;;;;;;;0.30;0.30;;;-0.30;99.90;;;;;;4951403;29;20095;-91
2021/01/17 00:17:56;;;;;;;2.17;1.55;;;-0.30;99.90;;;;;;4951153;29;20027;-92
2021/01/17 00:20:24;;;;;;;0.00;0.00;;;-0.20;99.90;;;;;;4951069;29;20464;-93
2021/01/17 00:22:50;;;;;;;2.88;2.63;;;-0.20;99.90;;;;;;4951282;29;20111;-91
2021/01/17 00:25:18;;;;;;;0.47;0.47;;;-0.20;99.90;;;;;;4951221;29;20031;-93
2021/01/17 00:27:51;;;;;;;0.00;0.00;;;-0.20;99.90;;;;;;4951286;29;20076;-93
2021/01/17 00:30:19;;;;;;;0.00;0.00;;;-0.20;99.90;;;;;;4951136;29;20042;-92
2021/01/17 00:32:53;;;;;;;0.55;0.55;;;-0.30;99.90;;;;;;4950994;29;20035;-93
2021/01/17 00:35:18;;;;;;;1.15;1.08;;;-0.20;99.90;;;;;;4935235;29;20027;-91
2021/01/17 00:37:49;;;;;;;0.00;0.00;;;-0.30;99.90;;;;;;4934998;29;20472;-92
2021/01/17 00:40:15;;;;;;;0.00;0.00;;;-0.20;99.90;;;;;;4951262;29;20035;-93
2021/01/17 00:42:48;;;;;;;0.00;0.00;;;-0.20;99.90;;;;;;4950896;29;20027;-93
2021/01/17 00:45:15;;;;;;;0.00;0.00;;;-0.30;99.90;;;;;;4935473;29;20062;-93
2021/01/17 00:47:48;;;;;;;0.00;0.00;;;-0.20;99.90;;;;;;4920036;29;20083;-93
2021/01/17 00:50:15;;;;;;;0.95;0.40;;;-0.20;99.90;;;;;;4932045;29;20047;-93
2021/01/17 00:52:41;;;;;;;0.00;0.00;;;-0.20;99.90;;;;;;4932135;29;20024;-93
2021/01/17 00:55:08;;;;;;;0.00;0.00;;;-0.20;99.90;;;;;;4932259;29;20067;-93
2021/01/17 00:57:34;;;;;;;0.00;0.00;;;-0.20;99.90;;;;;;4916038;29;20032;-92
2021/01/17 01:00:08;;;;;;;0.00;0.00;;;-0.20;99.90;;;;;;4931925;29;20036;-92
2021/01/17 01:02:39;;;;;;;0.00;0.00;;;-0.20;99.90;;;;;;4931625;29;20024;-93
2021/01/17 01:05:07;;;;;;;0.00;0.00;;;-0.20;99.90;;;;;;4931787;29;20039;-93
2021/01/17 01:07:32;;;;;;;0.00;0.00;;;-0.20;99.90;;;;;;4931857;29;20036;-94
2021/01/17 01:09:58;;;;;;;0.00;0.00;;;-0.20;99.90;;;;;;4931760;29;20047;-92
2021/01/17 01:12:24;;;;;;;0.00;0.00;;;-0.20;99.90;;;;;;4932597;29;20039;-93
2021/01/17 01:14:50;;;;;;;0.00;0.00;;;-0.20;99.90;;;;;;4951937;29;20028;-93
2021/01/17 01:17:15;;;;;;;3.20;1.20;;;-0.20;99.90;;;;;;4935860;29;20503;-91
2021/01/17 01:19:41;;;;;;;0.00;0.00;;;-0.20;99.90;;;;;;4935851;29;20040;-91
2021/01/17 01:22:07;;;;;;;0.95;0.95;;;-0.20;99.90;;;;;;4935767;29;20118;-92
2021/01/17 01:24:33;;;;;;;0.00;0.00;;;-0.20;99.90;;;;;;4935461;29;20027;-92
2021/01/17 01:26:58;;;;;;;0.10;0.10;;;-0.20;99.90;;;;;;4951303;29;20548;-90
2021/01/17 01:29:24;;;;;;;0.57;0.57;;;-0.20;99.90;;;;;;4935284;29;20040;-91
2021/01/17 01:31:50;;;;;;;0.00;0.00;;;-0.20;99.90;;;;;;4935136;29;20103;-91
2021/01/17 01:34:17;;;;;;;4.38;1.00;;;-0.20;99.90;;;;;;4935572;29;20396;-93
2021/01/17 01:36:43;;;;;;;0.00;0.00;;;-0.20;99.90;;;;;;4935617;29;20042;-93
2021/01/17 01:39:10;;;;;;;5.47;1.27;;;-0.20;99.90;;;;;;4935371;29;20031;-93
2021/01/17 01:41:38;;;;;;;0.00;0.00;;;-0.20;99.90;;;;;;4935011;29;20032;-93
2021/01/17 01:44:04;;;;;;;0.20;0.20;;;-0.20;99.90;;;;;;4934209;29;20056;-92
2021/01/17 01:46:31;;;;;;;33.58;2.92;;;-0.20;99.90;;;;;;4940668;29;20118;-91
2021/01/17 01:48:59;;;;;;;0.00;0.00;;;-0.20;99.90;;;;;;4954162;29;20031;-94
2021/01/17 01:51:25;;;;;;;0.00;0.00;;;-0.10;99.90;;;;;;4953657;29;20050;-93
2021/01/17 01:53:53;;;;;;;0.00;0.00;;;-0.20;99.90;;;;;;4954048;29;20027;-94
2021/01/17 01:56:19;;;;;;;0.00;0.00;;;-0.10;99.90;;;;;;4954039;29;20062;-92
2021/01/17 01:58:46;;;;;;;0.25;0.25;;;-0.20;99.90;;;;;;4970975;29;20055;-92
2021/01/17 02:01:13;;;;;;;0.00;0.00;;;-0.20;99.90;;;;;;4953846;29;20035;-94
2021/01/17 02:03:44;;;;;;;0.47;0.47;;;-0.10;99.90;;;;;;4953863;29;20032;-93
2021/01/17 02:06:13;;;;;;;0.57;0.57;;;-0.10;99.90;;;;;;4953674;29;20097;-92
2021/01/17 02:09:16;;;;;;;0.00;0.00;;;-0.20;99.90;;;;;;4953603;29;20032;-93
2021/01/17 02:12:13;;;;;;;0.00;0.00;;;-0.20;99.90;;;;;;4937569;29;20039;-93
2021/01/17 02:15:01;;;;;;;0.00;0.00;;;-0.20;99.90;;;;;;4953771;29;20066;-94
2021/01/17 02:17:28;;;;;;;0.00;0.00;;;-0.10;99.90;;;;;;4953813;29;20063;-93
2021/01/17 02:20:09;;;;;;;0.00;0.00;;;-0.10;99.90;;;;;;4937947;29;20498;-93
2021/01/17 02:22:40;;;;;;;0.00;0.00;;;-0.10;99.90;;;;;;4937431;28;20035;-93
2021/01/17 02:25:08;;;;;;;5.47;1.55;;;-0.10;99.90;;;;;;4953445;29;20050;-92
2021/01/17 02:27:36;;;;;;;0.20;0.20;;;-0.10;99.90;;;;;;4953391;29;20122;-93
2021/01/17 02:30:06;;;;;;;0.00;0.00;;;-0.10;99.90;;;;;;4953319;29;20035;-93
2021/01/17 02:32:34;;;;;;;4.65;1.08;;;-0.10;99.90;;;;;;4953340;29;20035;-93
2021/01/17 02:35:01;;;;;;;0.00;0.00;;;-0.10;99.90;;;;;;4953339;29;20038;-94
2021/01/17 02:37:57;;;;;;;1.85;1.85;;;-0.10;99.90;;;;;;4953020;29;20045;-92
2021/01/17 02:40:36;;;;;;;0.00;0.00;;;-0.10;99.90;;;;;;4937363;29;20039;-92
2021/01/17 02:43:02;;;;;;;0.03;0.03;;;-0.10;99.90;;;;;;4953288;29;20089;-93
2021/01/17 02:45:28;;;;;;;0.32;0.32;;;-0.10;99.90;;;;;;4953466;29;20107;-93
2021/01/17 02:47:53;;;;;;;0.00;0.00;;;-0.10;99.90;;;;;;4938230;29;20052;-94
2021/01/17 02:50:20;;;;;;;0.00;0.00;;;-0.10;99.90;;;;;;4934127;29;20059;-93
2021/01/17 02:52:54;;;;;;;0.00;0.00;;;-0.10;99.90;;;;;;4934010;29;20405;-93
2021/01/17 02:55:21;;;;;;;21.50;8.02;;;-0.10;99.90;;;;;;4911814;29;20043;-93
2021/01/17 02:57:48;;;;;;;3.03;2.38;;;-0.10;99.90;;;;;;4934300;29;20027;-93
2021/01/17 03:00:17;;;;;;;0.00;0.00;;;-0.10;99.90;;;;;;4934304;29;20042;-94
2021/01/17 03:02:44;;;;;;;5.13;0.57;;;-0.10;99.90;;;;;;4949754;29;20059;-92
2021/01/17 03:05:16;;;;;;;0.00;0.00;;;-0.10;99.90;;;;;;4933975;29;20059;-94
2021/01/17 03:07:48;;;;;;;0.00;0.00;;;-0.10;99.90;;;;;;4933867;29;20039;-93
2021/01/17 03:10:13;;;;;;;0.00;0.00;;;-0.10;99.90;;;;;;4917978;29;20036;-93
2021/01/17 03:12:39;;;;;;;0.00;0.00;;;-0.10;99.90;;;;;;4933473;29;20055;-93
2021/01/17 03:15:06;;;;;;;0.00;0.00;;;-0.10;99.90;;;;;;4933879;29;20039;-92
2021/01/17 03:17:32;;;;;;;0.00;0.00;;;-0.10;99.90;;;;;;4933528;29;20103;-89
2021/01/17 03:19:58;;;;;;;0.10;0.10;;;-0.10;99.90;;;;;;4933716;29;20075;-92
2021/01/17 03:22:23;;;;;;;2.30;2.15;;;0.00;99.90;;;;;;4933662;29;20031;-94
2021/01/17 03:24:49;;;;;;;0.70;0.70;;;0.00;99.90;;;;;;4933675;29;20062;-93
2021/01/17 03:27:15;;;;;;;0.00;0.00;;;0.00;99.90;;;;;;4933687;29;20038;-93
2021/01/17 03:29:40;;;;;;;0.00;0.00;;;0.00;99.90;;;;;;4933766;29;20032;-94
2021/01/17 03:32:06;;;;;;;0.00;0.00;;;0.00;99.90;;;;;;4949467;29;20047;-94
2021/01/17 03:34:32;;;;;;;0.00;0.00;;;0.00;99.90;;;;;;4932887;29;20119;-93
2021/01/17 03:36:57;;;;;;;0.00;0.00;;;0.00;99.90;;;;;;4949855;29;20036;-94
2021/01/17 03:39:23;;;;;;;0.00;0.00;;;0.00;99.90;;;;;;4932987;29;20032;-93
2021/01/17 03:41:49;;;;;;;0.00;0.00;;;0.00;99.90;;;;;;4917273;29;20043;-93
2021/01/17 03:44:14;;;;;;;0.00;0.00;;;0.00;99.90;;;;;;4973469;23;20053;-94
2021/01/17 03:46:40;;;;;;;1.55;1.45;;;0.00;99.90;;;;;;4991042;28;20043;-93
2021/01/17 03:49:07;;;;;;;0.00;0.00;;;0.00;99.90;;;;;;4974776;28;20120;-93
2021/01/17 03:51:33;;;;;;;0.00;0.00;;;0.00;99.90;;;;;;5007092;28;20397;-93
2021/01/17 03:53:58;;;;;;;0.25;0.25;;;0.00;99.90;;;;;;4990744;28;20026;-93
2021/01/17 03:56:25;;;;;;;0.00;0.00;;;0.00;99.90;;;;;;4991046;28;20098;-93
2021/01/17 03:58:51;;;;;;;0.00;0.00;;;0.00;99.90;;;;;;4990920;28;20026;-93
2021/01/17 04:01:17;;;;;;;2.55;2.45;;;0.00;99.90;;;;;;4990662;28;20381;-94
2021/01/17 04:03:42;;;;;;;0.52;0.52;;;0.00;99.90;;;;;;4990188;28;20477;-94
2021/01/17 04:06:08;;;;;;;0.00;0.00;;;0.00;99.90;;;;;;4990501;28;20038;-92
2021/01/17 04:08:33;;;;;;;2.58;0.82;;;0.10;99.90;;;;;;4973832;28;20026;-93
2021/01/17 04:10:59;;;;;;;2.45;1.08;;;0.10;99.90;;;;;;4989915;28;20052;-93
2021/01/17 04:13:25;;;;;;;0.00;0.00;;;0.10;99.90;;;;;;5006213;28;20035;-93
2021/01/17 04:15:51;;;;;;;2.40;1.08;;;0.00;99.90;;;;;;4990440;28;20065;-94
2021/01/17 04:18:16;;;;;;;7.03;2.78;;;0.10;99.90;;;;;;4990251;28;20037;-95
2021/01/17 04:20:42;;;;;;;0.00;0.00;;;0.10;99.90;;;;;;5006208;28;20034;-94
2021/01/17 04:23:08;;;;;;;0.00;0.00;;;0.10;99.90;;;;;;5006234;28;20040;-94
2021/01/17 04:25:35;;;;;;;0.57;0.45;;;0.10;99.90;;;;;;4973985;28;20081;-95
2021/01/17 04:28:00;;;;;;;0.00;0.00;;;0.10;99.90;;;;;;5022671;28;20038;-94
2021/01/17 04:30:34;;;;;;;0.00;0.00;;;0.10;99.90;;;;;;5006004;28;20038;-95
2021/01/17 04:32:59;;;;;;;0.80;0.55;;;0.10;99.90;;;;;;4989990;28;20042;-95
2021/01/17 04:35:25;;;;;;;0.00;0.00;;;0.10;99.90;;;;;;5005988;28;20073;-95
2021/01/17 04:37:51;;;;;;;0.00;0.00;;;0.10;99.90;;;;;;4990128;28;20061;-95
2021/01/17 04:40:18;;;;;;;0.00;0.00;;;0.10;99.90;;;;;;5006046;28;20057;-95
2021/01/17 04:42:48;;;;;;;0.00;0.00;;;0.10;99.90;;;;;;5006009;28;20083;-96
2021/01/17 04:45:17;;;;;;;1.40;1.38;;;0.20;99.90;;;;;;5006002;28;20050;-96
2021/01/17 04:47:46;;;;;;;0.00;0.00;;;0.20;99.90;;;;;;4990617;28;20030;-96
2021/01/17 04:50:15;;;;;;;0.00;0.00;;;0.20;99.90;;;;;;4990596;28;20042;-96
2021/01/17 04:52:52;;;;;;;3.30;0.55;;;0.20;99.90;;;;;;5006584;28;20038;-96
2021/01/17 04:55:23;;;;;;;0.00;0.00;;;0.20;99.90;;;;;;4980987;28;20034;-96
2021/01/17 04:58:08;;;;;;;0.00;0.00;;;0.20;99.90;;;;;;5008320;28;20051;-96
2021/01/17 05:00:37;;;;;;;0.08;0.08;;;0.20;99.90;;;;;;5003236;28;20034;-96
2021/01/17 05:03:30;;;;;;;0.13;0.13;;;0.20;99.90;;;;;;5002140;28;20035;-95
2021/01/17 07:12:56;;;;;;;0.35;0.35;;;0.40;99.90;;;;;;6007338;23;20029;-96
2021/01/17 07:15:31;;;;;;;0.00;0.00;;;0.40;99.90;;;;;;4993251;28;20139;-96
2021/01/17 07:18:05;;;;;;;0.00;0.00;;;0.40;99.90;;;;;;4991772;28;20022;-96
2021/01/17 07:20:38;;;;;;;0.00;0.00;;;0.40;99.90;;;;;;5010258;28;20086;-96
2021/01/17 07:23:06;;;;;;;0.00;0.00;;;0.40;99.90;;;;;;5011960;28;20049;-96
2021/01/17 07:25:34;;;;;;;0.00;0.00;;;0.40;99.90;;;;;;4994258;28;20091;-95
2021/01/17 07:28:14;;;;;;;2.17;2.08;;;0.40;99.90;;;;;;4994799;28;20034;-96
2021/01/17 07:30:59;;;;;;;0.10;0.10;;;0.40;99.90;;;;;;4995267;28;20062;-96
2021/01/17 07:33:36;;;;;;;0.00;0.00;;;0.40;99.90;;;;;;4994935;28;20049;-96
2021/01/17 07:36:08;;;;;;;0.00;0.00;;;0.40;99.90;;;;;;4995860;28;20041;-96
2021/01/17 07:38:36;;;;;;;0.00;0.00;;;0.40;99.90;;;;;;4993095;28;20125;-96
2021/01/17 07:41:08;;;;;;;0.00;0.00;;;0.40;99.90;;;;;;4993619;28;20034;-96
2021/01/17 07:43:39;;;;;;;0.00;0.00;;;0.40;99.90;;;;;;4993915;28;20029;-92
2021/01/17 07:46:10;;;;;;;0.00;0.00;;;0.40;99.90;;;;;;4993858;28;20054;-96
2021/01/17 07:48:38;;;;;;;0.00;0.00;;;0.40;99.90;;;;;;5010831;28;20034;-95
2021/01/17 07:51:08;;;;;;;0.00;0.00;;;0.40;99.90;;;;;;4993415;28;20049;-96
2021/01/17 07:53:38;;;;;;;0.00;0.00;;;0.40;99.90;;;;;;4975366;28;20053;-96
2021/01/17 07:56:10;;;;;;;0.00;0.00;;;0.40;99.90;;;;;;4996194;28;20039;-96
2021/01/17 07:58:58;;;;;;;0.00;0.00;;;0.40;99.90;;;;;;4991210;28;20050;-96
2021/01/17 08:01:36;;;;;;;0.00;0.00;;;0.40;99.90;;;;;;4961312;28;20035;-96
2021/01/17 08:04:04;;;;;;;0.00;0.00;;;0.50;99.90;;;;;;4994624;28;20045;-96
2021/01/17 08:06:35;;;;;;;0.00;0.00;;;0.40;99.90;;;;;;4980570;28;20031;-96
2021/01/17 08:09:06;;;;;;;0.00;0.00;;;0.50;99.90;;;;;;4994400;28;20038;-96
2021/01/17 08:11:48;;;;;;;0.00;0.00;;;0.50;99.90;;;;;;4970380;28;20204;-96
2021/01/17 08:14:27;;;;;;;0.00;0.00;;;0.50;99.90;;;;;;4993800;28;20064;-96
2021/01/17 08:17:13;;;;;;;0.00;0.00;;;0.50;99.90;;;;;;5009689;28;20026;-96
2021/01/17 08:20:00;;;;;;;0.00;0.00;;;0.50;99.90;;;;;;4994518;28;20061;-96
2021/01/17 08:22:28;;;;;;;0.00;0.00;;;0.50;99.90;;;;;;4998068;28;20043;-96
2021/01/17 08:25:08;;;;;;;0.00;0.00;;;0.50;99.90;;;;;;5000526;28;20031;-95
2021/01/17 08:43:52;;;;;;;0.00;0.00;;;0.60;99.90;;;;;;5239534;23;20904;-96
2021/01/17 08:49:12;;;;;;;0.00;0.00;;;0.60;99.90;;;;;;5055461;23;20098;-89
2021/01/17 08:52:22;;;;;;;0.00;0.00;;;0.70;99.90;;;;;;4980258;28;20042;-96
2021/01/17 08:55:37;;;;;;;0.00;0.00;;;0.70;99.90;;;;;;5287442;23;20090;-88
2021/01/17 08:59:01;;;;;;;0.00;0.00;;;0.70;99.90;;;;;;4985697;28;20046;-90
2021/01/17 09:10:22;;;;;;;0.00;0.00;;;0.80;99.90;;;;;;5138555;23;20066;-96
2021/01/17 09:12:58;;;;;;;0.00;0.00;;;0.80;99.90;;;;;;4979221;28;20106;-96
2021/01/17 09:15:39;;;;;;;0.00;0.00;;;0.80;99.90;;;;;;4980380;28;20031;-96
2021/01/17 09:18:55;;;;;;;2.05;1.95;;;0.90;99.90;;;;;;4998802;28;20042;-94
2021/01/17 09:22:36;;;;;;;0.00;0.00;;;0.90;99.90;;;;;;4998344;28;20034;-88
2021/01/17 09:52:35;;;;;;;1.95;1.85;;;1.10;99.90;;;;;;4991646;28;20047;-96
2021/01/17 09:55:01;;;;;;;0.32;0.32;;;1.10;99.90;;;;;;4974315;28;20046;-96
2021/01/17 09:57:27;;;;;;;0.20;0.20;;;1.10;99.90;;;;;;4974942;28;20031;-96
2021/01/17 09:59:54;;;;;;;0.45;0.45;;;1.10;99.90;;;;;;4957587;28;20047;-96
2021/01/17 10:02:24;;;;;;;0.00;0.00;;;1.10;99.90;;;;;;4986933;28;20146;-96
2021/01/17 10:04:51;;;;;;;0.00;0.00;;;1.10;99.90;;;;;;4989235;28;20502;-96
2021/01/17 10:07:21;;;;;;;5.78;3.85;;;1.20;99.90;;;;;;4989778;28;20071;-95
2021/01/17 10:09:47;;;;;;;0.00;0.00;;;1.30;99.90;;;;;;4973769;28;20031;-96
2021/01/17 10:12:25;;;;;;;0.00;0.00;;;1.30;99.90;;;;;;4971838;28;20130;-96
2021/01/17 10:14:52;;;;;;;0.00;0.00;;;1.30;99.90;;;;;;4990797;28;20483;-94
2021/01/17 10:17:18;;;;;;;0.00;0.00;;;1.40;99.90;;;;;;4992844;28;20035;-96
2021/01/17 10:19:46;;;;;;;0.00;0.00;;;1.40;99.90;;;;;;4993884;28;20034;-96
2021/01/17 10:22:18;;;;;;;3.03;2.83;;;1.40;99.90;;;;;;4992948;28;20030;-95
2021/01/17 10:24:44;;;;;;;0.30;0.30;;;1.50;99.90;;;;;;4964113;28;20094;-96
2021/01/17 10:27:12;;;;;;;0.00;0.00;;;1.60;99.90;;;;;;4980851;28;20034;-93
2021/01/17 10:29:42;;;;;;;0.43;0.43;;;1.50;99.90;;;;;;4966003;28;20035;-95
2021/01/17 10:32:15;;;;;;;0.00;0.00;;;1.60;99.90;;;;;;4967749;28;20045;-96
2021/01/17 10:34:47;;;;;;;0.00;0.00;;;1.60;99.90;;;;;;4980809;28;20464;-96
2021/01/17 10:37:18;;;;;;;0.10;0.10;;;1.60;99.90;;;;;;4979756;28;20046;-96
2021/01/17 10:39:46;;;;;;;0.00;0.00;;;1.80;99.90;;;;;;4996260;28;20031;-94
2021/01/17 10:42:16;;;;;;;0.00;0.00;;;1.80;99.90;;;;;;4979410;28;20106;-94
2021/01/17 10:45:02;;;;;;;0.00;0.00;;;1.90;99.90;;;;;;4996535;28;20038;-90
2021/01/17 10:47:46;;;;;;;0.00;0.00;;;2.10;99.90;;;;;;4977341;28;20065;-96
2021/01/17 10:50:24;;;;;;;0.68;0.68;;;2.00;99.90;;;;;;4975608;28;20045;-96
2021/01/17 10:53:17;;;;;;;0.00;0.00;;;2.10;99.90;;;;;;4992537;28;20057;-94
2021/01/17 10:55:54;;;;;;;0.17;0.17;;;2.20;99.90;;;;;;4971170;29;20057;-96
2021/01/17 10:58:41;;;;;;;0.00;0.00;;;2.30;99.90;;;;;;4951665;28;20130;-94
2021/01/17 11:01:06;;;;;;;0.00;0.00;;;2.40;99.90;;;;;;4971081;28;20102;-94
2021/01/17 11:03:34;;;;;;;0.00;0.00;;;2.30;99.90;;;;;;4970971;28;20057;-91
2021/01/17 11:06:13;;;;;;;0.00;0.00;;;2.30;99.90;;;;;;4987803;28;20081;-92
2021/01/17 11:08:59;;;;;;;0.00;0.00;;;2.30;99.90;;;;;;4952094;29;20103;-94
2021/01/17 11:11:29;;;;;;;0.00;0.00;;;2.50;99.90;;;;;;4946065;28;20054;-93
2021/01/17 11:14:03;;;;;;;;;;;2.70;99.90;;;;;;4953006;28;20031;-94
2021/01/17 11:16:36;;;;;;;0.00;0.00;;;2.80;99.90;;;;;;4971087;28;19933;-95
2021/01/17 11:19:06;;;;;;;0.00;0.00;;;2.90;99.90;;;;;;4987059;28;20034;-94
2021/01/17 11:21:33;;;;;;;3.95;3.75;;;3.00;99.90;;;;;;4955209;28;20034;-95
2021/01/17 11:23:59;;;;;;;0.63;0.63;;;3.00;99.90;;;;;;4970247;28;20050;-95
2021/01/17 11:26:26;;;;;;;0.00;0.00;;;3.20;99.90;;;;;;4987303;28;20471;-95
2021/01/17 11:28:53;;;;;;;0.00;0.00;;;3.30;99.90;;;;;;4987118;28;20083;-92
2021/01/17 11:31:21;;;;;;;0.00;0.00;;;3.50;99.90;;;;;;4987273;28;20054;-93
2021/01/17 11:33:49;;;;;;;0.00;0.00;;;3.70;99.90;;;;;;4986884;28;20031;-93
2021/01/17 11:36:19;;;;;;;0.00;0.00;;;3.60;99.90;;;;;;4987136;28;20045;-94
2021/01/17 11:38:46;;;;;;;;;;;3.80;99.90;;;;;;4955232;28;20031;-94
2021/01/17 11:41:14;;;;;;;0.08;0.08;;;3.80;99.90;;;;;;4971425;28;20001;-93
2021/01/17 11:43:40;;;;;;;0.00;0.00;;;3.80;99.90;;;;;;4987593;28;20038;-93
2021/01/17 11:46:10;;;;;;;0.47;0.47;;;3.90;99.90;;;;;;4973381;28;20045;-94
2021/01/17 11:48:37;;;;;;;0.00;0.00;;;4.00;99.90;;;;;;4970535;28;20050;-92
2021/01/17 11:51:05;;;;;;;0.00;0.00;;;4.20;99.90;;;;;;4986381;28;20159;-94
2021/01/17 11:53:31;;;;;;;0.20;0.13;;;4.30;99.90;;;;;;4969726;28;20117;-92
2021/01/17 11:56:05;;;;;;;0.00;0.00;;;4.40;99.90;;;;;;4983991;28;20027;-96
2021/01/17 11:58:41;;;;;;;0.00;0.00;;;4.40;99.90;;;;;;4945024;29;20039;-95
2021/01/17 12:01:07;;;;;;;0.00;0.00;;;4.50;99.90;;;;;;4954905;29;20039;-94
2021/01/17 12:03:40;;;;;;;0.00;0.00;;;4.50;99.90;;;;;;4950387;29;20031;-95
2021/01/17 12:06:16;;;;;;;0.00;0.00;;;4.60;99.90;;;;;;4950240;29;20179;-92
2021/01/17 12:09:04;;;;;;;1.88;1.10;;;4.70;99.90;;;;;;4956925;29;20047;-95
2021/01/17 12:11:38;;;;;;;0.52;0.52;;;4.70;99.90;;;;;;4947560;29;20067;-94
2021/01/17 12:14:28;;;;;;;0.00;0.00;;;4.70;99.90;;;;;;4950324;29;20111;-94
2021/01/17 12:16:58;;;;;;;0.00;0.00;;;4.80;99.90;;;;;;4961578;29;20047;-94
2021/01/17 12:19:28;;;;;;;0.73;0.60;;;4.90;99.90;;;;;;4951851;29;20043;-95
2021/01/17 12:22:06;;;;;;;0.00;0.00;;;5.10;99.90;;;;;;4924968;29;20142;-95
2021/01/17 12:24:43;;;;;;;0.00;0.00;;;5.20;99.90;;;;;;4951447;29;20513;-96
2021/01/17 12:27:09;;;;;;;0.00;0.00;;;5.40;99.90;;;;;;4947724;29;20035;-95
2021/01/17 12:29:38;;;;;;;4.28;3.20;;;5.50;99.90;;;;;;4935965;29;20487;-95
2021/01/17 12:32:16;;;;;;;0.00;0.00;;;5.60;99.90;;;;;;4949005;29;20062;-96
2021/01/17 12:34:45;;;;;;;0.00;0.00;;;5.70;99.90;;;;;;4949280;29;20016;-96
2021/01/17 12:37:11;;;;;;;0.00;0.00;;;5.70;99.90;;;;;;4952318;29;20487;-96
2021/01/17 12:39:38;;;;;;;0.00;0.00;;;5.70;99.90;;;;;;4952536;29;20115;-96
2021/01/17 12:44:56;;;;;;;0.22;0.22;;;5.80;99.90;;;;;;4927256;29;20058;-94
2021/01/17 12:47:22;;;;;;;2.58;2.47;;;5.80;99.90;;;;;;4929501;29;20028;-94
2021/01/17 12:49:47;;;;;;;0.00;0.00;;;5.80;99.90;;;;;;4932518;29;20054;-96
2021/01/17 12:52:13;;;;;;;0.30;0.17;;;5.90;99.90;;;;;;4920489;29;20067;-96
2021/01/17 12:55:16;;;;;;;1.23;1.23;;;5.90;99.90;;;;;;4921454;29;20028;-96
2021/01/17 12:57:44;;;;;;;0.13;0.10;;;5.90;99.90;;;;;;4915810;28;20076;-95
2021/01/17 13:00:11;;;;;;;3.72;1.55;;;6.10;99.90;;;;;;4943817;29;20100;-96
2021/01/17 13:02:40;;;;;;;0.00;0.00;;;6.20;99.90;;;;;;4943543;29;20059;-96
2021/01/17 13:05:06;;;;;;;0.15;0.15;;;6.30;99.90;;;;;;4944073;29;20042;-94
2021/01/17 13:07:34;;;;;;;2.67;2.45;;;6.40;99.90;;;;;;4929714;29;20087;-95
2021/01/17 13:10:05;;;;;;;3.25;2.22;;;6.20;99.90;;;;;;4943925;29;20032;-94
2021/01/17 13:12:31;;;;;;;0.00;0.00;;;6.20;99.90;;;;;;4947187;29;20044;-95
2021/01/17 13:14:57;;;;;;;0.00;0.00;;;6.20;99.90;;;;;;4940086;29;20047;-96
2021/01/17 13:17:26;;;;;;;0.35;0.35;;;6.30;99.90;;;;;;4940689;29;20036;-94
2021/01/17 13:19:52;;;;;;;6.55;0.47;;;6.40;99.90;;;;;;4939648;29;20028;-96
2021/01/17 13:22:18;;;;;;;0.00;0.00;;;6.40;99.90;;;;;;4943378;29;20083;-95
2021/01/17 13:24:43;;;;;;;0.00;0.00;;;6.50;99.90;;;;;;4939590;29;20382;-95
2021/01/17 13:27:09;;;;;;;0.38;0.38;;;6.50;99.90;;;;;;4939413;29;20025;-96
2021/01/17 13:29:35;;;;;;;0.00;0.00;;;6.60;99.90;;;;;;4941532;29;20032;-95
2021/01/17 13:32:02;;;;;;;0.30;0.15;;;6.60;99.90;;;;;;4942507;29;20044;-96
2021/01/17 13:34:28;;;;;;;0.00;0.00;;;6.50;99.90;;;;;;4942088;29;20044;-95
2021/01/17 13:36:53;;;;;;;0.35;0.32;;;6.40;99.90;;;;;;4943082;29;20036;-96
2021/01/17 13:39:19;;;;;;;0.00;0.00;;;6.40;99.90;;;;;;4943699;29;20055;-96
2021/01/17 13:41:52;;;;;;;2.92;1.58;;;6.40;99.90;;;;;;4942998;29;20073;-96
2021/01/17 13:44:18;;;;;;;0.00;0.00;;;6.50;99.90;;;;;;4963164;23;20058;-95
2021/01/17 13:46:52;;;;;;;0.00;0.00;;;6.50;99.90;;;;;;4947421;29;20032;-96
2021/01/17 13:49:20;;;;;;;0.00;0.00;;;6.50;99.90;;;;;;4947430;29;20031;-96
2021/01/17 13:51:45;;;;;;;0.00;0.00;;;6.50;99.90;;;;;;4943547;29;20067;-95
2021/01/17 13:54:11;;;;;;;0.00;0.00;;;6.50;99.90;;;;;;4912917;29;20047;-96
2021/01/17 13:56:37;;;;;;;0.00;0.00;;;6.40;99.90;;;;;;4929876;29;20056;-95
2021/01/17 13:59:06;;;;;;;0.00;0.00;;;6.40;99.90;;;;;;4928604;29;20028;-96
2021/01/17 14:01:35;;;;;;;0.70;0.70;;;6.40;99.90;;;;;;4928081;29;20552;-95
2021/01/17 14:04:12;;;;;;;0.00;0.00;;;6.40;99.90;;;;;;4928303;29;20028;-95
2021/01/17 14:06:39;;;;;;;0.00;0.00;;;6.40;99.90;;;;;;4933695;29;20051;-94
2021/01/17 14:09:05;;;;;;;0.00;0.00;;;6.40;99.90;;;;;;4948366;29;20091;-96
2021/01/17 14:11:31;;;;;;;0.00;0.00;;;6.40;99.90;;;;;;4948497;29;20377;-96
2021/01/17 14:13:58;;;;;;;0.00;0.00;;;6.40;99.90;;;;;;4946980;29;20042;-96
2021/01/17 14:16:23;;;;;;;0.00;0.00;;;6.40;99.90;;;;;;4947818;29;20063;-94
2021/01/17 14:18:49;;;;;;;5.93;1.10;;;6.50;99.90;;;;;;4947974;29;20028;-96
2021/01/17 14:21:15;;;;;;;0.10;0.10;;;6.50;99.90;;;;;;4936779;29;20261;-96
2021/01/17 14:23:40;;;;;;;0.00;0.00;;;6.50;99.90;;;;;;4949508;29;20038;-96
2021/01/17 14:26:06;;;;;;;0.00;0.00;;;6.50;99.90;;;;;;4949587;29;20043;-96
2021/01/17 14:28:32;;;;;;;0.15;0.10;;;6.40;99.90;;;;;;4949578;29;20090;-95
2021/01/17 14:30:58;;;;;;;0.00;0.00;;;6.50;99.90;;;;;;4949470;29;20052;-96
2021/01/17 14:33:24;;;;;;;0.00;0.00;;;6.40;99.90;;;;;;4949253;29;20032;-96
2021/01/17 14:35:50;;;;;;;0.00;0.00;;;6.30;99.90;;;;;;4950420;29;20080;-96
2021/01/17 14:38:19;;;;;;;0.10;0.10;;;6.30;99.90;;;;;;4949768;29;20035;-96
2021/01/17 14:40:56;;;;;;;2.92;2.78;;;6.20;99.90;;;;;;4949734;29;20046;-96
2021/01/17 14:43:31;;;;;;;0.00;0.00;;;6.20;99.90;;;;;;4950307;29;20031;-95
2021/01/17 14:46:02;;;;;;;0.00;0.00;;;6.20;99.90;;;;;;4930868;29;20044;-96
2021/01/17 14:48:30;;;;;;;0.28;0.28;;;6.20;99.90;;;;;;4930503;29;20051;-96
2021/01/17 14:51:02;;;;;;;0.93;0.30;;;6.10;99.90;;;;;;4930689;29;20555;-96
2021/01/17 14:53:36;;;;;;;1.00;1.00;;;6.10;99.90;;;;;;4930307;29;20051;-96
2021/01/17 14:56:06;;;;;;;0.00;0.00;;;6.10;99.90;;;;;;4946551;29;20473;-96
2021/01/17 15:02:32;;;;;;;0.00;0.00;;;6.00;99.90;;;;;;4944246;29;20032;-95
2021/01/17 15:05:15;;;;;;;0.00;0.00;;;5.90;99.90;;;;;;4945006;29;20096;-95
2021/01/17 15:07:49;;;;;;;0.00;0.00;;;5.90;99.90;;;;;;4946347;29;20043;-96
2021/01/17 15:13:03;;;;;;;0.00;0.00;;;5.90;99.90;;;;;;4945754;29;20036;-95
2021/01/17 15:15:35;;;;;;;0.00;0.00;;;5.90;99.90;;;;;;4945806;29;20032;-96
2021/01/17 15:18:04;;;;;;;0.00;0.00;;;5.80;99.90;;;;;;4945902;29;20043;-96
2021/01/17 15:20:38;;;;;;;1.10;1.10;;;5.80;99.90;;;;;;4945749;29;20059;-96
2021/01/17 15:23:36;;;;;;;2.03;0.08;;;5.90;99.90;;;;;;4948627;29;20067;-96
2021/01/17 15:26:03;;;;;;;0.00;0.00;;;5.90;99.90;;;;;;4946855;29;20064;-96
2021/01/17 15:28:32;;;;;;;0.00;0.00;;;5.80;99.90;;;;;;4962224;29;20043;-95
2021/01/17 15:31:24;;;;;;;0.00;0.00;;;5.80;99.90;;;;;;4945012;29;20076;-95
2021/01/17 15:34:01;;;;;;;0.00;0.00;;;5.70;99.90;;;;;;4930325;29;20040;-95
2021/01/17 15:36:30;;;;;;;0.00;0.00;;;5.70;99.90;;;;;;4946149;29;20064;-94
2021/01/17 15:39:23;;;;;;;0.00;0.00;;;5.70;99.90;;;;;;4962451;28;20032;-96
2021/01/17 15:42:05;;;;;;;0.00;0.00;;;5.70;99.90;;;;;;4946890;29;20039;-96
2021/01/17 15:44:41;;;;;;;0.10;0.00;;;5.70;99.90;;;;;;4955215;29;20095;-94
2021/01/17 15:47:20;;;;;;;0.00;0.00;;;5.70;99.90;;;;;;4964767;29;20106;-94
2021/01/17 15:49:49;;;;;;;0.00;0.00;;;5.70;99.90;;;;;;4950262;29;20028;-95
2021/01/17 15:52:27;;;;;;;0.00;0.00;;;5.60;99.90;;;;;;4956278;29;20485;-94
2021/01/17 15:54:57;;;;;;;0.00;0.00;;;5.60;99.90;;;;;;4930211;29;20032;-96
2021/01/17 15:57:59;;;;;;;0.00;0.00;;;5.50;99.90;;;;;;4962354;29;20039;-95
2021/01/17 16:00:38;;;;;;;0.00;0.00;;;5.40;99.90;;;;;;4926058;29;20044;-93
2021/01/17 16:03:31;;;;;;;0.00;0.00;;;5.50;99.90;;;;;;4930366;29;20087;-95
2021/01/17 16:06:40;;;;;;;0.00;0.00;;;5.50;99.90;;;;;;4929236;29;20340;-95
2021/01/17 16:09:27;;;;;;;0.00;0.00;;;5.50;99.90;;;;;;4964130;29;20032;-96
2021/01/17 16:15:02;;;;;;;0.00;0.00;;;5.40;99.90;;;;;;4956474;29;20040;-96
2021/01/17 16:17:49;;;;;;;0.00;0.00;;;5.40;99.90;;;;;;4961397;29;20456;-91
2021/01/17 16:20:30;;;;;;;0.00;0.00;;;5.40;99.90;;;;;;4979065;28;20075;-96
2021/01/17 16:23:00;;;;;;;0.25;0.25;;;5.40;99.90;;;;;;4964919;29;20346;-94
2021/01/17 16:25:37;;;;;;;0.00;0.00;;;5.40;99.90;;;;;;4967422;29;20099;-95
2021/01/17 16:28:09;;;;;;;0.00;0.00;;;5.30;99.90;;;;;;4969085;29;20060;-96
2021/01/17 16:30:54;;;;;;;;;;;;;;;;;;;;;
2021/01/17 16:33:20;;;;;;;0.00;0.00;;;5.20;99.90;;;;;;4964612;28;20086;-94